createdAt,value
2022-10-23T00:01:44.246Z,78781.66
2022-10-23T00:04:13.162Z,78523.44
2022-10-23T00:06:40.752Z,78265.28
2022-10-23T00:09:10.220Z,78007.13
2022-10-23T00:11:37.602Z,78007.13
2022-10-23T00:14:07.434Z,77490.88
2022-10-23T00:16:35.258Z,77232.75
2022-10-23T00:19:03.557Z,76974.69
2022-10-23T00:21:31.049Z,76716.63
2022-10-23T00:23:58.926Z,76458.59
2022-10-23T00:26:26.530Z,76716.63
2022-10-23T00:28:54.832Z,76458.59
2022-10-23T00:31:24.036Z,76716.63
2022-10-23T00:33:52.557Z,75942.56
2022-10-23T00:36:21.713Z,75684.56
2022-10-23T00:38:50.308Z,75426.59
2022-10-23T00:41:24.280Z,74652.84
2022-10-23T00:44:05.384Z,75168.66
2022-10-23T00:46:33.384Z,74910.75
2022-10-23T00:49:01.375Z,74394.94
2022-10-23T00:51:36.110Z,74394.94
2022-10-23T00:56:56.134Z,73105.81
2022-10-23T00:59:24.400Z,72590.28
2022-10-23T01:01:52.093Z,72074.84
2022-10-23T01:04:20.073Z,72074.84
2022-10-23T01:07:03.626Z,71817.16
2022-10-23T01:09:37.781Z,71817.16
2022-10-23T01:12:04.896Z,72332.56
2022-10-23T01:14:35.784Z,72074.84
2022-10-23T01:17:09.730Z,70528.97
2022-10-23T01:19:46.484Z,70271.41
2022-10-23T01:22:36.743Z,70013.84
2022-10-23T01:25:32.206Z,69756.31
2022-10-23T01:28:05.254Z,69241.31
2022-10-23T01:30:37.841Z,68726.38
2022-10-23T01:33:10.047Z,67696.72
2022-10-23T01:35:53.172Z,67696.72
2022-10-23T01:38:50.388Z,67182.00
2022-10-23T01:41:26.473Z,67182.00
2022-10-23T01:44:07.853Z,66667.38
2022-10-23T01:46:37.586Z,66924.69
2022-10-23T01:49:10.946Z,67696.72
2022-10-23T01:51:41.399Z,67954.09
2022-10-23T01:54:13.569Z,68211.50
2022-10-23T01:56:45.665Z,68726.38
2022-10-23T01:59:18.584Z,68726.38
2022-10-23T02:01:50.988Z,69241.31
2022-10-23T02:04:26.762Z,69756.31
2022-10-23T02:06:54.240Z,70013.84
2022-10-23T02:09:21.894Z,70271.41
2022-10-23T02:12:04.055Z,70271.41
2022-10-23T02:14:53.294Z,70013.84
2022-10-23T02:17:30.157Z,70786.59
2022-10-23T02:20:13.827Z,70786.59
2022-10-23T02:22:49.928Z,70786.59
2022-10-23T02:25:30.761Z,70528.97
2022-10-23T02:28:03.283Z,70786.59
2022-10-23T02:30:43.240Z,70786.59
2022-10-23T02:33:14.589Z,71044.19
2022-10-23T02:35:42.742Z,71044.19
2022-10-23T02:38:43.890Z,71044.19
2022-10-23T02:41:12.100Z,71559.47
2022-10-23T02:44:27.275Z,71559.47
2022-10-23T02:47:20.811Z,72074.84
2022-10-23T02:50:03.841Z,72590.28
2022-10-23T02:52:34.099Z,72590.28
2022-10-23T02:55:09.900Z,72590.28
2022-10-23T02:57:55.174Z,72848.03
2022-10-23T03:00:23.660Z,72848.03
2022-10-23T03:02:58.910Z,72848.03
2022-10-23T03:05:36.669Z,73105.81
2022-10-23T03:08:09.440Z,73105.81
2022-10-23T03:10:37.086Z,73363.59
2022-10-23T03:13:06.877Z,73363.59
2022-10-23T03:15:42.073Z,73621.41
2022-10-23T03:18:13.132Z,73879.22
2022-10-23T03:20:45.027Z,73621.41
2022-10-23T03:23:14.003Z,73621.41
2022-10-23T03:25:41.651Z,73621.41
2022-10-23T03:28:11.341Z,73621.41
2022-10-23T03:30:39.035Z,73621.41
2022-10-23T03:33:07.439Z,73621.41
2022-10-23T03:35:36.225Z,74652.84
2022-10-23T03:38:03.991Z,75168.66
2022-10-23T03:40:32.073Z,74910.75
2022-10-23T03:43:00.677Z,75426.59
2022-10-23T03:45:31.109Z,75684.56
2022-10-23T03:47:58.811Z,76200.56
2022-10-23T03:50:26.267Z,76716.63
2022-10-23T03:52:55.802Z,76974.69
2022-10-23T03:55:27.079Z,77748.97
2022-10-23T03:57:54.937Z,78007.13
2022-10-23T04:00:23.001Z,78265.28
2022-10-23T04:02:51.178Z,78523.44
2022-10-23T04:05:19.304Z,78781.66
2022-10-23T04:07:56.862Z,79298.09
2022-10-23T04:10:26.553Z,79814.63
2022-10-23T04:12:55.012Z,79814.63
2022-10-23T04:15:22.496Z,80072.94
2022-10-23T04:17:49.889Z,80072.94
2022-10-23T04:20:17.891Z,80072.94
2022-10-23T04:22:45.744Z,80847.91
2022-10-23T04:25:13.596Z,81881.53
2022-10-23T04:27:41.323Z,82139.97
2022-10-23T04:30:09.678Z,82139.97
2022-10-23T04:32:38.602Z,82139.97
2022-10-23T04:35:06.950Z,82139.97
2022-10-23T04:37:34.356Z,82398.44
2022-10-23T04:40:01.659Z,82398.44
2022-10-23T04:42:30.301Z,82398.44
2022-10-23T04:45:00.297Z,82139.97
2022-10-23T04:47:28.367Z,82139.97
2022-10-23T04:49:58.846Z,82656.94
2022-10-23T04:52:45.170Z,83432.50
2022-10-23T04:55:31.115Z,83432.50
2022-10-23T04:58:10.898Z,83173.97
2022-10-23T05:00:38.907Z,82656.94
2022-10-23T05:03:06.499Z,82398.44
2022-10-23T05:05:41.888Z,82398.44
2022-10-23T05:08:38.547Z,82398.44
2022-10-23T05:11:21.180Z,82656.94
2022-10-23T05:13:50.658Z,82398.44
2022-10-23T05:16:39.525Z,82139.97
2022-10-23T05:19:10.151Z,82398.44
2022-10-23T05:21:40.494Z,82398.44
2022-10-23T05:24:08.526Z,82398.44
2022-10-23T05:26:35.926Z,82398.44
2022-10-23T05:29:07.689Z,82398.44
2022-10-23T05:31:36.455Z,82656.94
2022-10-23T05:34:15.392Z,82915.44
2022-10-23T05:36:45.812Z,82915.44
2022-10-23T05:39:15.134Z,82915.44
2022-10-23T05:41:42.517Z,82656.94
2022-10-23T05:44:10.394Z,82915.44
2022-10-23T05:47:08.029Z,82915.44
2022-10-23T05:49:55.757Z,83173.97
2022-10-23T05:52:47.892Z,83173.97
2022-10-23T05:55:47.294Z,84466.88
2022-10-23T05:58:34.101Z,84984.19
2022-10-23T06:01:09.009Z,84725.53
2022-10-23T06:03:52.862Z,84466.88
2022-10-23T06:06:24.675Z,84466.88
2022-10-23T06:08:52.630Z,84725.53
2022-10-23T06:11:22.695Z,84984.19
2022-10-23T06:14:01.237Z,85242.88
2022-10-23T06:16:29.561Z,84984.19
2022-10-23T06:19:01.029Z,85242.88
2022-10-23T06:21:28.517Z,84725.53
2022-10-23T06:23:56.789Z,82398.44
2022-10-23T06:26:24.263Z,80589.56
2022-10-23T06:29:11.900Z,79556.34
2022-10-23T06:31:42.944Z,78523.44
2022-10-23T06:34:12.440Z,76974.69
2022-10-23T06:36:40.148Z,76200.56
2022-10-23T06:39:29.759Z,76716.63
2022-10-23T06:42:07.179Z,77232.75
2022-10-23T06:44:52.955Z,76974.69
2022-10-23T06:47:39.136Z,76200.56
2022-10-23T06:50:42.088Z,75426.59
2022-10-23T06:53:13.722Z,74910.75
2022-10-23T06:55:50.086Z,74652.84
2022-10-23T06:58:20.737Z,75426.59
2022-10-23T07:01:09.887Z,75426.59
2022-10-23T07:03:38.400Z,75426.59
2022-10-23T07:06:10.074Z,74137.09
2022-10-23T07:08:38.414Z,73621.41
2022-10-23T07:11:18.806Z,73363.59
2022-10-23T07:13:49.186Z,73105.81
2022-10-23T07:16:23.430Z,72590.28
2022-10-23T07:19:01.073Z,72332.56
2022-10-23T07:21:31.271Z,72074.84
2022-10-23T07:24:21.498Z,71817.16
2022-10-23T07:29:16.405Z,71559.47
2022-10-23T07:31:44.583Z,71044.19
2022-10-23T07:34:31.674Z,71301.84
2022-10-23T07:37:19.015Z,71559.47
2022-10-23T07:39:47.515Z,71559.47
2022-10-23T07:42:14.831Z,71559.47
2022-10-23T07:44:42.904Z,71817.16
2022-10-23T07:47:10.686Z,71817.16
2022-10-23T07:49:41.366Z,71817.16
2022-10-23T07:52:10.878Z,72074.84
2022-10-23T07:54:58.345Z,72074.84
2022-10-23T07:57:29.106Z,72074.84
2022-10-23T08:00:07.266Z,71817.16
2022-10-23T08:02:41.392Z,72074.84
2022-10-23T08:05:11.105Z,72074.84
2022-10-23T08:07:47.178Z,72332.56
2022-10-23T08:10:14.846Z,72590.28
2022-10-23T08:12:44.512Z,72848.03
2022-10-23T08:15:13.616Z,73363.59
2022-10-23T08:18:04.166Z,73879.22
2022-10-23T08:20:51.258Z,74394.94
2022-10-23T08:23:20.653Z,74910.75
2022-10-23T08:25:49.079Z,75168.66
2022-10-23T08:28:18.122Z,75942.56
2022-10-23T08:30:56.978Z,76200.56
2022-10-23T08:33:25.528Z,76200.56
2022-10-23T08:35:53.587Z,76716.63
2022-10-23T08:38:29.131Z,77490.88
2022-10-23T08:40:57.238Z,77748.97
2022-10-23T08:43:56.618Z,78265.28
2022-10-23T08:47:16.553Z,78523.44
2022-10-23T08:50:23.916Z,78781.66
2022-10-23T08:53:20.779Z,79556.34
2022-10-23T08:56:03.164Z,79556.34
2022-10-23T08:58:41.089Z,79556.34
2022-10-23T09:01:39.298Z,80072.94
2022-10-23T09:04:07.180Z,80847.91
2022-10-23T09:06:58.190Z,81106.28
2022-10-23T09:09:47.541Z,81623.09
2022-10-23T09:12:21.581Z,81881.53
2022-10-23T09:15:14.080Z,82398.44
2022-10-23T09:17:44.165Z,83173.97
2022-10-23T09:20:22.986Z,83432.50
2022-10-23T09:22:59.360Z,83691.06
2022-10-23T09:25:30.627Z,84208.25
2022-10-23T09:28:01.558Z,84466.88
2022-10-23T09:30:35.881Z,84725.53
2022-10-23T09:33:20.235Z,84725.53
2022-10-23T09:36:04.007Z,84725.53
2022-10-23T09:38:47.697Z,85242.88
2022-10-23T09:41:22.782Z,85501.56
2022-10-23T09:44:08.854Z,85242.88
2022-10-23T09:46:40.737Z,85501.56
2022-10-23T09:49:39.457Z,85501.56
2022-10-23T09:52:13.114Z,86019.03
2022-10-23T09:54:57.433Z,85760.28
2022-10-23T09:57:29.558Z,86795.38
2022-10-23T10:00:06.506Z,87571.88
2022-10-23T10:02:39.239Z,87313.03
2022-10-23T10:05:24.983Z,88348.56
2022-10-23T10:08:25.199Z,87830.75
2022-10-23T10:11:11.702Z,87571.88
2022-10-23T10:14:05.009Z,87830.75
2022-10-23T10:16:49.093Z,90679.66
2022-10-23T10:19:23.112Z,93790.25
2022-10-23T10:22:37.522Z,105219.59
2022-10-23T10:25:23.567Z,108343.22
2022-10-23T10:28:30.651Z,108082.81
2022-10-23T10:31:23.108Z,108082.81
2022-10-23T10:34:12.691Z,108082.81
2022-10-23T10:36:48.141Z,107562.06
2022-10-23T10:39:21.837Z,107041.38
2022-10-23T10:42:08.411Z,106520.78
2022-10-23T10:44:48.685Z,106000.25
2022-10-23T10:47:51.794Z,105479.81
2022-10-23T10:50:36.044Z,105479.81
2022-10-23T10:53:33.959Z,104959.44
2022-10-23T10:56:04.881Z,104959.44
2022-10-23T10:58:40.208Z,104959.44
2022-10-23T11:01:28.129Z,104439.13
2022-10-23T11:04:04.789Z,104179.03
2022-10-23T11:06:36.092Z,104439.13
2022-10-23T11:09:27.837Z,103918.91
2022-10-23T11:11:55.627Z,103918.91
2022-10-23T11:14:25.859Z,103658.84
2022-10-23T11:17:02.189Z,103138.75
2022-10-23T11:19:35.961Z,102618.72
2022-10-23T11:22:25.129Z,102098.78
2022-10-23T11:25:11.590Z,101838.84
2022-10-23T11:28:10.165Z,102098.78
2022-10-23T11:30:57.847Z,102618.72
2022-10-23T11:33:28.208Z,103138.75
2022-10-23T11:36:17.490Z,102878.72
2022-10-23T11:38:50.902Z,102358.75
2022-10-23T11:41:20.993Z,102098.78
2022-10-23T11:43:57.143Z,101838.84
2022-10-23T11:46:27.218Z,101578.91
2022-10-23T11:48:56.182Z,101319.00
2022-10-23T11:51:38.392Z,101578.91
2022-10-23T11:54:12.178Z,101578.91
2022-10-23T11:56:57.446Z,101319.00
2022-10-23T11:59:35.491Z,101578.91
2022-10-23T12:02:21.321Z,101319.00
2022-10-23T12:04:52.154Z,101319.00
2022-10-23T12:07:32.169Z,101059.13
2022-10-23T12:10:04.357Z,101059.13
2022-10-23T12:12:41.013Z,100539.41
2022-10-23T12:15:11.491Z,100539.41
2022-10-23T12:17:40.251Z,100279.59
2022-10-23T12:20:11.211Z,100279.59
2022-10-23T12:23:04.761Z,100539.41
2022-10-23T12:25:52.532Z,100279.59
2022-10-23T12:28:22.913Z,100279.59
2022-10-23T12:31:15.265Z,100019.78
2022-10-23T12:33:57.059Z,100019.78
2022-10-23T12:37:15.957Z,100019.78
2022-10-23T12:39:43.687Z,100279.59
2022-10-23T12:42:23.631Z,100019.78
2022-10-23T12:45:17.425Z,100019.78
2022-10-23T12:47:49.974Z,100019.78
2022-10-23T12:50:22.796Z,100279.59
2022-10-23T12:52:53.212Z,100279.59
2022-10-23T12:55:21.748Z,100539.41
2022-10-23T12:57:50.453Z,100279.59
2022-10-23T13:00:22.562Z,100539.41
2022-10-23T13:03:04.047Z,100799.25
2022-10-23T13:05:32.581Z,101059.13
2022-10-23T13:08:04.582Z,101319.00
2022-10-23T13:10:49.647Z,101578.91
2022-10-23T13:13:24.375Z,101319.00
2022-10-23T13:15:52.232Z,100539.41
2022-10-23T13:18:19.599Z,100279.59
2022-10-23T13:20:53.573Z,100279.59
2022-10-23T13:23:35.164Z,100019.78
2022-10-23T13:26:48.721Z,100019.78
2022-10-23T13:30:09.945Z,100019.78
2022-10-23T13:33:25.943Z,99760.00
2022-10-23T13:36:16.556Z,99760.00
2022-10-23T13:39:09.978Z,99500.22
2022-10-23T13:41:42.180Z,99500.22
2022-10-23T13:44:15.681Z,99240.47
2022-10-23T13:46:43.812Z,99500.22
2022-10-23T13:49:13.981Z,99760.00
2022-10-23T13:51:48.700Z,100019.78
2022-10-23T13:56:57.390Z,100019.78
2022-10-23T13:59:24.923Z,100019.78
2022-10-23T14:01:52.732Z,100539.41
2022-10-23T14:04:20.523Z,100799.25
2022-10-23T14:06:47.998Z,100799.25
2022-10-23T14:09:17.958Z,101059.13
2022-10-23T14:11:45.466Z,101059.13
2022-10-23T14:14:13.110Z,101319.00
2022-10-23T14:16:40.808Z,101578.91
2022-10-23T14:19:09.293Z,101578.91
2022-10-23T14:21:36.837Z,101319.00
2022-10-23T14:24:04.536Z,101578.91
2022-10-23T14:26:32.907Z,101578.91
2022-10-23T14:29:04.204Z,101838.84
2022-10-23T14:31:38.629Z,102358.75
2022-10-23T14:34:05.953Z,102618.72
2022-10-23T14:36:43.603Z,102878.72
2022-10-23T14:39:18.615Z,103138.75
2022-10-23T14:41:48.566Z,103398.78
2022-10-23T14:44:17.124Z,103398.78
2022-10-23T14:46:44.661Z,103658.84
2022-10-23T14:49:12.234Z,103398.78
2022-10-23T14:51:41.037Z,103138.75
2022-10-23T14:54:10.751Z,103398.78
2022-10-23T14:56:41.150Z,103658.84
2022-10-23T14:59:10.478Z,103658.84
2022-10-23T15:01:45.486Z,103658.84
2022-10-23T15:04:14.828Z,103398.78
2022-10-23T15:06:43.443Z,103658.84
2022-10-23T15:09:12.083Z,103918.91
2022-10-23T15:11:39.995Z,104179.03
2022-10-23T15:14:07.726Z,104179.03
2022-10-23T15:16:41.451Z,103918.91
2022-10-23T15:19:15.107Z,103918.91
2022-10-23T15:21:47.635Z,103918.91
2022-10-23T15:24:16.813Z,103658.84
2022-10-23T15:26:45.143Z,103918.91
2022-10-23T15:29:15.134Z,103918.91
2022-10-23T15:31:44.145Z,103918.91
2022-10-23T15:34:28.655Z,103658.84
2022-10-23T15:36:57.973Z,103918.91
2022-10-23T15:39:28.025Z,103918.91
2022-10-23T15:41:56.838Z,103918.91
2022-10-23T15:44:27.713Z,104179.03
2022-10-23T15:46:58.608Z,104179.03
2022-10-23T15:49:29.633Z,104439.13
2022-10-23T15:52:00.820Z,104699.28
2022-10-23T15:54:31.945Z,104699.28
2022-10-23T15:57:01.421Z,104439.13
2022-10-23T15:59:32.799Z,104439.13
2022-10-23T16:02:01.233Z,104699.28
2022-10-23T16:04:29.072Z,104439.13
2022-10-23T16:06:56.400Z,104439.13
2022-10-23T16:09:24.030Z,104179.03
2022-10-23T16:11:51.501Z,104179.03
2022-10-23T16:14:18.962Z,103918.91
2022-10-23T16:16:49.658Z,103658.84
2022-10-23T16:19:18.815Z,103658.84
2022-10-23T16:21:46.135Z,103658.84
2022-10-23T16:24:13.712Z,103918.91
2022-10-23T16:26:42.433Z,109385.06
2022-10-23T16:29:11.245Z,111469.63
2022-10-23T16:31:38.667Z,112251.69
2022-10-23T16:34:06.958Z,112512.38
2022-10-23T16:36:35.075Z,112773.13
2022-10-23T16:39:12.822Z,112773.13
2022-10-23T16:41:58.866Z,113033.88
2022-10-23T16:44:35.809Z,113033.88
2022-10-23T16:47:06.858Z,113033.88
2022-10-23T16:49:34.376Z,113033.88
2022-10-23T16:52:01.801Z,112773.13
2022-10-23T16:54:29.234Z,112773.13
2022-10-23T16:56:56.719Z,112512.38
2022-10-23T16:59:24.409Z,112251.69
2022-10-23T17:01:54.544Z,111730.28
2022-10-23T17:04:22.155Z,111469.63
2022-10-23T17:06:51.910Z,111209.00
2022-10-23T17:09:19.608Z,111730.28
2022-10-23T17:11:48.024Z,112773.13
2022-10-23T17:14:18.559Z,113033.88
2022-10-23T17:16:51.281Z,113035.94
2022-10-23T17:19:43.673Z,113033.88
2022-10-23T17:22:12.669Z,113035.94
2022-10-23T17:24:41.631Z,113035.94
2022-10-23T17:27:09.669Z,113035.94
2022-10-23T17:29:37.220Z,113033.88
2022-10-23T17:32:07.277Z,113033.88
2022-10-23T17:34:34.869Z,113033.88
2022-10-23T17:37:02.236Z,113033.88
2022-10-23T17:39:30.024Z,113033.88
2022-10-23T17:41:57.985Z,113033.88
2022-10-23T17:44:25.616Z,113033.88
2022-10-23T17:46:54.431Z,113033.88
2022-10-23T17:49:23.150Z,113033.88
2022-10-23T17:51:57.554Z,112773.13
2022-10-23T17:54:27.589Z,112773.13
2022-10-23T17:56:55.060Z,112773.13
2022-10-23T17:59:23.328Z,113033.88
2022-10-23T18:01:53.402Z,113033.88
2022-10-23T18:04:21.011Z,113033.88
2022-10-23T18:06:52.472Z,113033.88
2022-10-23T18:09:21.321Z,113033.88
2022-10-23T18:11:48.912Z,113033.88
2022-10-23T18:14:22.211Z,113033.88
2022-10-23T18:16:50.343Z,113033.88
2022-10-23T18:19:19.892Z,113033.88
2022-10-23T18:21:48.190Z,113033.88
2022-10-23T18:24:16.149Z,113033.88
2022-10-23T18:26:44.170Z,113033.88
2022-10-23T18:29:13.070Z,113033.88
2022-10-23T18:31:41.335Z,113033.88
2022-10-23T18:34:22.637Z,113033.88
2022-10-23T18:36:51.776Z,113033.88
2022-10-23T18:39:25.329Z,113033.88
2022-10-23T18:41:56.399Z,113033.88
2022-10-23T18:44:29.098Z,113033.88
2022-10-23T18:47:00.289Z,113033.88
2022-10-23T18:49:28.680Z,113033.88
2022-10-23T18:51:58.340Z,113033.88
2022-10-23T18:54:25.881Z,113033.88
2022-10-23T18:56:55.839Z,113033.88
2022-10-23T18:59:23.711Z,113033.88
2022-10-23T19:01:52.389Z,113033.88
2022-10-23T19:04:19.833Z,113033.88
2022-10-23T19:06:48.648Z,113033.88
2022-10-23T19:09:16.991Z,113033.88
2022-10-23T19:11:45.509Z,113033.88
2022-10-23T19:14:13.196Z,113033.88
2022-10-23T19:16:48.331Z,112773.13
2022-10-23T19:19:22.060Z,112773.13
2022-10-23T19:21:50.518Z,112773.13
2022-10-23T19:24:23.605Z,112773.13
2022-10-23T19:26:54.176Z,112773.13
2022-10-23T19:29:26.444Z,112773.13
2022-10-23T19:31:54.491Z,112773.13
2022-10-23T19:34:25.066Z,112773.13
2022-10-23T19:36:55.701Z,112512.38
2022-10-23T19:39:23.471Z,112512.38
2022-10-23T19:41:51.724Z,112512.38
2022-10-23T19:44:20.130Z,112512.38
2022-10-23T19:46:48.253Z,112512.38
2022-10-23T19:49:15.844Z,112512.38
2022-10-23T19:51:50.945Z,112512.38
2022-10-23T19:54:20.468Z,112251.69
2022-10-23T19:56:48.109Z,112251.69
2022-10-23T19:59:16.029Z,111990.97
2022-10-23T20:01:46.491Z,111990.97
2022-10-23T20:04:18.576Z,111730.28
2022-10-23T20:06:47.362Z,111469.63
2022-10-23T20:09:17.078Z,111209.00
2022-10-23T20:11:45.297Z,111209.00
2022-10-23T20:14:13.676Z,111209.00
2022-10-23T20:16:41.140Z,110948.38
2022-10-23T20:19:12.860Z,110948.38
2022-10-23T20:21:42.408Z,110948.38
2022-10-23T20:24:12.751Z,110687.78
2022-10-23T20:26:45.465Z,110687.78
2022-10-23T20:29:13.788Z,110427.19
2022-10-23T20:31:42.482Z,110427.19
2022-10-23T20:34:11.521Z,110427.19
2022-10-23T20:36:46.638Z,110427.19
2022-10-23T20:39:19.082Z,110427.19
2022-10-23T20:41:47.124Z,110166.63
2022-10-23T20:46:45.093Z,109906.06
2022-10-23T20:49:13.620Z,109906.06
2022-10-23T20:51:41.833Z,109645.56
2022-10-23T20:54:09.477Z,109645.56
2022-10-23T20:56:38.884Z,109645.56
2022-10-23T20:59:10.844Z,109385.06
2022-10-23T21:01:43.450Z,109385.06
2022-10-23T21:04:14.230Z,109124.56
2022-10-23T21:07:08.375Z,109385.06
2022-10-23T21:09:34.073Z,109124.56
2022-10-23T21:12:01.348Z,109124.56
2022-10-23T21:14:31.702Z,109124.56
2022-10-23T21:16:59.243Z,109124.56
2022-10-23T21:19:26.695Z,109124.56
2022-10-23T21:21:55.170Z,109124.56
2022-10-23T21:24:24.185Z,109124.56
2022-10-23T21:26:51.960Z,109124.56
2022-10-23T21:29:20.591Z,109124.56
2022-10-23T21:31:55.460Z,108864.09
2022-10-23T21:34:25.769Z,108864.09
2022-10-23T21:37:12.292Z,108864.09
2022-10-23T21:39:41.893Z,108603.66
2022-10-23T21:42:09.770Z,108603.66
2022-10-23T21:44:37.433Z,108343.22
2022-10-23T21:47:05.153Z,108603.66
2022-10-23T21:49:35.801Z,108343.22
2022-10-23T21:52:04.006Z,108343.22
2022-10-23T21:54:31.578Z,108343.22
2022-10-23T21:56:59.276Z,108343.22
2022-10-23T21:59:29.971Z,108343.22
2022-10-23T22:01:59.589Z,108343.22
2022-10-23T22:04:27.279Z,108343.22
2022-10-23T22:06:55.019Z,108082.81
2022-10-23T22:09:23.054Z,108082.81
2022-10-23T22:11:51.930Z,108082.81
2022-10-23T22:14:19.956Z,108082.81
2022-10-23T22:16:48.531Z,107822.44
2022-10-23T22:19:18.129Z,107562.06
2022-10-23T22:21:46.354Z,107562.06
2022-10-23T22:24:14.084Z,107562.06
2022-10-23T22:26:48.025Z,107562.06
2022-10-23T22:29:19.708Z,107562.06
2022-10-23T22:31:49.723Z,107562.06
2022-10-23T22:34:28.826Z,107301.72
2022-10-23T22:37:12.396Z,107301.72
2022-10-23T22:39:40.171Z,107301.72
2022-10-23T22:42:08.198Z,107041.38
2022-10-23T22:44:35.579Z,107301.72
2022-10-23T22:47:03.487Z,107301.72
2022-10-23T22:49:31.120Z,107301.72
2022-10-23T22:52:00.539Z,107301.72
2022-10-23T22:54:28.079Z,107301.72
2022-10-23T22:56:55.803Z,107301.72
2022-10-23T22:59:23.218Z,107301.72
2022-10-23T23:01:51.288Z,107301.72
2022-10-23T23:07:11.147Z,107041.38
2022-10-23T23:09:41.271Z,107041.38
2022-10-23T23:12:11.298Z,107041.38
2022-10-23T23:14:39.628Z,106781.06
2022-10-23T23:17:08.101Z,106781.06
2022-10-23T23:19:38.286Z,106781.06
2022-10-23T23:22:05.992Z,106520.78
2022-10-23T23:24:34.032Z,106520.78
2022-10-23T23:27:01.717Z,106520.78
2022-10-23T23:29:29.649Z,106260.50
2022-10-23T23:31:57.206Z,106260.50
2022-10-23T23:34:24.722Z,106000.25
2022-10-23T23:36:52.284Z,106000.25
2022-10-23T23:39:19.769Z,106000.25
2022-10-23T23:41:47.883Z,106000.25
2022-10-23T23:44:15.321Z,106000.25
2022-10-23T23:46:43.426Z,106000.25
2022-10-23T23:49:11.023Z,106000.25
2022-10-23T23:51:38.507Z,106000.25
2022-10-23T23:54:06.088Z,106000.25
2022-10-23T23:56:33.601Z,105740.00
2022-10-23T23:59:01.079Z,105740.00
